sensor_id;sensor_type;location;lat;lon;timestamp;temperature;humidity
21498;DHT22;10910;50.932;0.246;2022-12-05T00:04:13;5.40;99.90
21498;DHT22;10910;50.932;0.246;2022-12-05T00:06:40;5.40;99.90
21498;DHT22;10910;50.932;0.246;2022-12-05T00:09:07;5.40;99.90
21498;DHT22;10910;50.932;0.246;2022-12-05T00:14:01;5.40;99.90
21498;DHT22;10910;50.932;0.246;2022-12-05T00:16:29;5.40;99.90
21498;DHT22;10910;50.932;0.246;2022-12-05T00:31:13;5.40;99.90
21498;DHT22;10910;50.932;0.246;2022-12-05T00:36:12;5.40;99.90
21498;DHT22;10910;50.932;0.246;2022-12-05T00:46:09;5.40;99.90
21498;DHT22;10910;50.932;0.246;2022-12-05T00:51:07;5.40;99.90
21498;DHT22;10910;50.932;0.246;2022-12-05T00:56:14;5.50;99.90
21498;DHT22;10910;50.932;0.246;2022-12-05T01:01:50;5.50;99.90
21498;DHT22;10910;50.932;0.246;2022-12-05T01:04:06;5.50;99.90
21498;DHT22;10910;50.932;0.246;2022-12-05T01:13:51;5.50;99.90
21498;DHT22;10910;50.932;0.246;2022-12-05T01:16:20;5.50;99.90
21498;DHT22;10910;50.932;0.246;2022-12-05T01:26:09;5.50;99.90
21498;DHT22;10910;50.932;0.246;2022-12-05T01:31:11;5.50;99.90
21498;DHT22;10910;50.932;0.246;2022-12-05T01:41:04;5.50;99.90
21498;DHT22;10910;50.932;0.246;2022-12-05T01:48:31;5.50;99.90
21498;DHT22;10910;50.932;0.246;2022-12-05T01:53:27;5.50;99.90
21498;DHT22;10910;50.932;0.246;2022-12-05T01:55:54;5.50;99.90
21498;DHT22;10910;50.932;0.246;2022-12-05T02:03:18;5.60;99.90
21498;DHT22;10910;50.932;0.246;2022-12-05T02:05:47;5.60;99.90
21498;DHT22;10910;50.932;0.246;2022-12-05T02:10:43;5.60;99.90
21498;DHT22;10910;50.932;0.246;2022-12-05T02:29:58;5.50;99.90
21498;DHT22;10910;50.932;0.246;2022-12-05T02:35:49;5.60;99.90
21498;DHT22;10910;50.932;0.246;2022-12-05T02:38:26;5.60;99.90
21498;DHT22;10910;50.932;0.246;2022-12-05T02:44:31;5.50;99.90
21498;DHT22;10910;50.932;0.246;2022-12-05T02:49:30;5.50;99.90
21498;DHT22;10910;50.932;0.246;2022-12-05T02:51:59;5.50;99.90
21498;DHT22;10910;50.932;0.246;2022-12-05T02:56:54;5.60;99.90
21498;DHT22;10910;50.932;0.246;2022-12-05T03:04:15;5.70;99.90
21498;DHT22;10910;50.932;0.246;2022-12-05T03:06:50;5.70;99.90
21498;DHT22;10910;50.932;0.246;2022-12-05T03:09:27;5.70;99.90
21498;DHT22;10910;50.932;0.246;2022-12-05T03:14:37;5.70;99.90
21498;DHT22;10910;50.932;0.246;2022-12-05T03:17:09;5.70;99.90
21498;DHT22;10910;50.932;0.246;2022-12-05T03:22:18;5.70;99.90
21498;DHT22;10910;50.932;0.246;2022-12-05T03:30:22;5.70;99.90
21498;DHT22;10910;50.932;0.246;2022-12-05T03:36:00;5.70;99.90
21498;DHT22;10910;50.932;0.246;2022-12-05T03:38:57;5.70;99.90
21498;DHT22;10910;50.932;0.246;2022-12-05T03:47:11;5.70;99.90
21498;DHT22;10910;50.932;0.246;2022-12-05T03:49:49;5.70;99.90
21498;DHT22;10910;50.932;0.246;2022-12-05T03:52:33;5.70;99.90
21498;DHT22;10910;50.932;0.246;2022-12-05T03:57:42;5.70;99.90
21498;DHT22;10910;50.932;0.246;2022-12-05T04:02:48;5.70;99.90
21498;DHT22;10910;50.932;0.246;2022-12-05T04:10:19;5.70;99.90
21498;DHT22;10910;50.932;0.246;2022-12-05T04:12:48;5.70;99.90
21498;DHT22;10910;50.932;0.246;2022-12-05T04:15:44;5.70;99.90
21498;DHT22;10910;50.932;0.246;2022-12-05T04:18:31;5.70;99.90
21498;DHT22;10910;50.932;0.246;2022-12-05T04:21:00;5.70;99.90
21498;DHT22;10910;50.932;0.246;2022-12-05T04:26:32;5.80;99.90
21498;DHT22;10910;50.932;0.246;2022-12-05T04:29:06;5.80;99.90
21498;DHT22;10910;50.932;0.246;2022-12-05T04:34:06;5.80;99.90
21498;DHT22;10910;50.932;0.246;2022-12-05T04:39:19;5.90;99.90
21498;DHT22;10910;50.932;0.246;2022-12-05T04:42:00;5.80;99.90
21498;DHT22;10910;50.932;0.246;2022-12-05T04:44:33;5.80;99.90
21498;DHT22;10910;50.932;0.246;2022-12-05T04:47:02;5.80;99.90
21498;DHT22;10910;50.932;0.246;2022-12-05T04:49:31;5.80;99.90
21498;DHT22;10910;50.932;0.246;2022-12-05T04:52:01;5.80;99.90
21498;DHT22;10910;50.932;0.246;2022-12-05T04:54:32;5.80;99.90
21498;DHT22;10910;50.932;0.246;2022-12-05T04:57:07;5.90;99.90
21498;DHT22;10910;50.932;0.246;2022-12-05T05:02:07;5.90;99.90
21498;DHT22;10910;50.932;0.246;2022-12-05T05:04:46;5.90;99.90
21498;DHT22;10910;50.932;0.246;2022-12-05T05:07:12;5.80;99.90
21498;DHT22;10910;50.932;0.246;2022-12-05T05:09:39;5.90;99.90
21498;DHT22;10910;50.932;0.246;2022-12-05T05:21:50;5.90;99.90
21498;DHT22;10910;50.932;0.246;2022-12-05T05:26:44;6.00;99.90
21498;DHT22;10910;50.932;0.246;2022-12-05T05:31:37;5.90;99.90
21498;DHT22;10910;50.932;0.246;2022-12-05T05:41:35;5.90;99.90
21498;DHT22;10910;50.932;0.246;2022-12-05T05:44:02;5.90;99.90
21498;DHT22;10910;50.932;0.246;2022-12-05T05:46:30;5.90;99.90
21498;DHT22;10910;50.932;0.246;2022-12-05T06:01:17;5.90;99.90
21498;DHT22;10910;50.932;0.246;2022-12-05T06:06:12;6.00;99.90
21498;DHT22;10910;50.932;0.246;2022-12-05T06:08:40;6.00;99.90
21498;DHT22;10910;50.932;0.246;2022-12-05T06:11:15;6.00;99.90
21498;DHT22;10910;50.932;0.246;2022-12-05T06:16:09;6.10;99.90
21498;DHT22;10910;50.932;0.246;2022-12-05T06:25:55;6.00;99.90
21498;DHT22;10910;50.932;0.246;2022-12-05T06:28:23;6.00;99.90
21498;DHT22;10910;50.932;0.246;2022-12-05T07:00:04;6.10;99.90
21498;DHT22;10910;50.932;0.246;2022-12-05T07:02:51;6.20;99.90
21498;DHT22;10910;50.932;0.246;2022-12-05T08:01:24;6.20;99.90
21498;DHT22;10910;50.932;0.246;2022-12-05T08:03:55;6.20;99.90
21498;DHT22;10910;50.932;0.246;2022-12-05T08:06:24;6.20;99.90
21498;DHT22;10910;50.932;0.246;2022-12-05T08:11:31;6.30;99.90
21498;DHT22;10910;50.932;0.246;2022-12-05T08:16:27;6.30;99.90
21498;DHT22;10910;50.932;0.246;2022-12-05T08:19:06;6.40;99.90
21498;DHT22;10910;50.932;0.246;2022-12-05T08:31:23;6.40;99.90
21498;DHT22;10910;50.932;0.246;2022-12-05T08:33:50;6.40;99.90
21498;DHT22;10910;50.932;0.246;2022-12-05T08:38:44;6.40;99.90
21498;DHT22;10910;50.932;0.246;2022-12-05T08:41:12;6.50;99.90
21498;DHT22;10910;50.932;0.246;2022-12-05T08:46:05;6.50;99.90
21498;DHT22;10910;50.932;0.246;2022-12-05T08:48:32;6.50;99.90
21498;DHT22;10910;50.932;0.246;2022-12-05T09:03:10;6.60;99.90
21498;DHT22;10910;50.932;0.246;2022-12-05T09:25:06;6.70;99.90
21498;DHT22;10910;50.932;0.246;2022-12-05T09:42:31;6.70;99.90
21498;DHT22;10910;50.932;0.246;2022-12-05T09:45:24;6.70;99.90
21498;DHT22;10910;50.932;0.246;2022-12-05T09:47:58;6.70;99.90
21498;DHT22;10910;50.932;0.246;2022-12-05T09:57:53;6.70;99.90
21498;DHT22;10910;50.932;0.246;2022-12-05T10:03:02;6.80;99.90
21498;DHT22;10910;50.932;0.246;2022-12-05T10:14:13;7.00;99.90
21498;DHT22;10910;50.932;0.246;2022-12-05T10:16:21;7.00;99.90
21498;DHT22;10910;50.932;0.246;2022-12-05T10:19:10;7.10;99.90
21498;DHT22;10910;50.932;0.246;2022-12-05T10:21:47;7.10;99.90
21498;DHT22;10910;50.932;0.246;2022-12-05T10:29:30;7.10;99.90
21498;DHT22;10910;50.932;0.246;2022-12-05T10:32:23;7.10;99.90
21498;DHT22;10910;50.932;0.246;2022-12-05T10:34:54;7.10;99.90
21498;DHT22;10910;50.932;0.246;2022-12-05T10:39:51;7.20;99.90
21498;DHT22;10910;50.932;0.246;2022-12-05T10:42:25;7.20;99.90
21498;DHT22;10910;50.932;0.246;2022-12-05T10:44:58;7.20;99.90
21498;DHT22;10910;50.932;0.246;2022-12-05T10:49:51;7.10;99.90
21498;DHT22;10910;50.932;0.246;2022-12-05T10:54:48;7.20;99.90
21498;DHT22;10910;50.932;0.246;2022-12-05T11:02:32;7.20;99.90
21498;DHT22;10910;50.932;0.246;2022-12-05T11:07:32;7.20;99.90
21498;DHT22;10910;50.932;0.246;2022-12-05T11:09:59;7.20;99.90
21498;DHT22;10910;50.932;0.246;2022-12-05T11:12:37;7.20;99.90
21498;DHT22;10910;50.932;0.246;2022-12-05T11:17:37;7.20;99.90
21498;DHT22;10910;50.932;0.246;2022-12-05T11:22:54;7.20;99.90
21498;DHT22;10910;50.932;0.246;2022-12-05T11:25:31;7.20;99.90
21498;DHT22;10910;50.932;0.246;2022-12-05T11:28:21;7.20;99.90
21498;DHT22;10910;50.932;0.246;2022-12-05T11:33:29;7.20;99.90
21498;DHT22;10910;50.932;0.246;2022-12-05T11:36:11;7.10;99.90
21498;DHT22;10910;50.932;0.246;2022-12-05T11:38:38;7.00;99.90
21498;DHT22;10910;50.932;0.246;2022-12-05T11:47:21;7.10;99.90
21498;DHT22;10910;50.932;0.246;2022-12-05T11:53:22;7.20;99.90
21498;DHT22;10910;50.932;0.246;2022-12-05T11:58:59;7.30;99.90
21498;DHT22;10910;50.932;0.246;2022-12-05T12:20:21;7.40;99.90
21498;DHT22;10910;50.932;0.246;2022-12-05T12:29:17;7.40;99.90
21498;DHT22;10910;50.932;0.246;2022-12-05T12:36:50;7.50;99.90
21498;DHT22;10910;50.932;0.246;2022-12-05T12:42:26;7.50;99.90
21498;DHT22;10910;50.932;0.246;2022-12-05T13:03:06;7.60;99.90
21498;DHT22;10910;50.932;0.246;2022-12-05T13:05:43;7.60;99.90
21498;DHT22;10910;50.932;0.246;2022-12-05T13:10:45;7.40;99.90
21498;DHT22;10910;50.932;0.246;2022-12-05T13:13:27;7.40;99.90
21498;DHT22;10910;50.932;0.246;2022-12-05T13:15:57;7.40;99.90
21498;DHT22;10910;50.932;0.246;2022-12-05T13:18:26;7.40;99.90
21498;DHT22;10910;50.932;0.246;2022-12-05T13:20:54;7.40;99.90
21498;DHT22;10910;50.932;0.246;2022-12-05T13:23:24;7.40;99.90
21498;DHT22;10910;50.932;0.246;2022-12-05T13:25:53;7.50;99.90
21498;DHT22;10910;50.932;0.246;2022-12-05T13:28:39;7.50;99.90
21498;DHT22;10910;50.932;0.246;2022-12-05T13:36:11;7.90;99.90
21498;DHT22;10910;50.932;0.246;2022-12-05T13:39:17;8.00;99.90
21498;DHT22;10910;50.932;0.246;2022-12-05T13:44:48;8.00;99.90
21498;DHT22;10910;50.932;0.246;2022-12-05T13:52:30;8.10;99.90
21498;DHT22;10910;50.932;0.246;2022-12-05T13:57:54;8.10;99.90
21498;DHT22;10910;50.932;0.246;2022-12-05T14:00:34;8.10;99.90
21498;DHT22;10910;50.932;0.246;2022-12-05T14:05:47;8.00;99.90
21498;DHT22;10910;50.932;0.246;2022-12-05T14:15:53;7.70;99.90
21498;DHT22;10910;50.932;0.246;2022-12-05T14:18:45;7.60;99.90
21498;DHT22;10910;50.932;0.246;2022-12-05T14:35:03;7.60;99.90
21498;DHT22;10910;50.932;0.246;2022-12-05T14:37:54;7.70;99.90
21498;DHT22;10910;50.932;0.246;2022-12-05T14:48:00;7.60;99.90
21498;DHT22;10910;50.932;0.246;2022-12-05T14:50:40;7.70;99.90
21498;DHT22;10910;50.932;0.246;2022-12-05T14:53:38;7.70;99.90
21498;DHT22;10910;50.932;0.246;2022-12-05T14:56:23;7.70;99.90
21498;DHT22;10910;50.932;0.246;2022-12-05T15:01:39;7.70;99.90
21498;DHT22;10910;50.932;0.246;2022-12-05T15:06:58;7.70;99.90
21498;DHT22;10910;50.932;0.246;2022-12-05T15:15:14;7.70;99.90
21498;DHT22;10910;50.932;0.246;2022-12-05T15:17:49;7.70;99.90
21498;DHT22;10910;50.932;0.246;2022-12-05T15:30:15;7.20;99.90
21498;DHT22;10910;50.932;0.246;2022-12-05T15:35:10;7.10;99.90
21498;DHT22;10910;50.932;0.246;2022-12-05T15:40:13;7.10;99.90
21498;DHT22;10910;50.932;0.246;2022-12-05T15:42:49;7.10;99.90
21498;DHT22;10910;50.932;0.246;2022-12-05T15:45:27;7.10;99.90
21498;DHT22;10910;50.932;0.246;2022-12-05T15:48:11;7.20;99.90
21498;DHT22;10910;50.932;0.246;2022-12-05T15:56:03;7.30;99.90
21498;DHT22;10910;50.932;0.246;2022-12-05T15:58:35;7.20;99.90
21498;DHT22;10910;50.932;0.246;2022-12-05T16:01:10;7.30;99.90
21498;DHT22;10910;50.932;0.246;2022-12-05T16:03:47;7.20;99.90
21498;DHT22;10910;50.932;0.246;2022-12-05T16:06:19;7.30;99.90
21498;DHT22;10910;50.932;0.246;2022-12-05T16:11:13;7.30;99.90
21498;DHT22;10910;50.932;0.246;2022-12-05T16:13:47;7.30;99.90
21498;DHT22;10910;50.932;0.246;2022-12-05T16:16:17;7.40;99.90
21498;DHT22;10910;50.932;0.246;2022-12-05T16:19:13;7.40;99.90
21498;DHT22;10910;50.932;0.246;2022-12-05T16:22:00;7.40;99.90
21498;DHT22;10910;50.932;0.246;2022-12-05T16:24:31;7.30;99.90
21498;DHT22;10910;50.932;0.246;2022-12-05T16:27:16;7.30;99.90
21498;DHT22;10910;50.932;0.246;2022-12-05T16:32:22;7.30;99.90
21498;DHT22;10910;50.932;0.246;2022-12-05T16:37:40;7.30;99.90
21498;DHT22;10910;50.932;0.246;2022-12-05T16:40:20;7.30;99.90
21498;DHT22;10910;50.932;0.246;2022-12-05T16:45:39;7.30;99.90
21498;DHT22;10910;50.932;0.246;2022-12-05T16:48:27;7.30;99.90
21498;DHT22;10910;50.932;0.246;2022-12-05T16:53:43;7.20;99.90
21498;DHT22;10910;50.932;0.246;2022-12-05T17:01:19;7.20;99.90
21498;DHT22;10910;50.932;0.246;2022-12-05T17:06:12;7.20;99.90
21498;DHT22;10910;50.932;0.246;2022-12-05T17:11:12;7.30;99.90
21498;DHT22;10910;50.932;0.246;2022-12-05T17:20:59;7.30;99.90
21498;DHT22;10910;50.932;0.246;2022-12-05T17:25:56;7.30;99.90
21498;DHT22;10910;50.932;0.246;2022-12-05T17:28:23;7.30;99.90
21498;DHT22;10910;50.932;0.246;2022-12-05T17:43:03;7.40;99.90
21498;DHT22;10910;50.932;0.246;2022-12-05T17:50:23;7.40;99.90
21498;DHT22;10910;50.932;0.246;2022-12-05T17:52:50;7.40;99.90
21498;DHT22;10910;50.932;0.246;2022-12-05T17:55:19;7.30;99.90
21498;DHT22;10910;50.932;0.246;2022-12-05T18:44:08;7.30;99.90
21498;DHT22;10910;50.932;0.246;2022-12-05T18:46:35;7.40;99.90
21498;DHT22;10910;50.932;0.246;2022-12-05T18:56:27;7.40;99.90
21498;DHT22;10910;50.932;0.246;2022-12-05T18:58:58;7.40;99.90
21498;DHT22;10910;50.932;0.246;2022-12-05T19:01:25;7.50;99.90
21498;DHT22;10910;50.932;0.246;2022-12-05T19:11:16;7.40;99.90
21498;DHT22;10910;50.932;0.246;2022-12-05T19:16:10;7.40;99.90
21498;DHT22;10910;50.932;0.246;2022-12-05T19:26:02;7.40;99.90
21498;DHT22;10910;50.932;0.246;2022-12-05T19:31:03;7.40;99.90
21498;DHT22;10910;50.932;0.246;2022-12-05T19:33:33;7.50;99.90
21498;DHT22;10910;50.932;0.246;2022-12-05T19:36:04;7.50;99.90
21498;DHT22;10910;50.932;0.246;2022-12-05T19:38:34;7.50;99.90
21498;DHT22;10910;50.932;0.246;2022-12-05T19:41:01;7.40;99.90
21498;DHT22;10910;50.932;0.246;2022-12-05T19:43:31;7.30;99.90
21498;DHT22;10910;50.932;0.246;2022-12-05T19:46:01;7.30;99.90
21498;DHT22;10910;50.932;0.246;2022-12-05T19:48:28;7.30;99.90
21498;DHT22;10910;50.932;0.246;2022-12-05T19:50:55;7.30;99.90
21498;DHT22;10910;50.932;0.246;2022-12-05T21:04:05;7.10;99.90
21498;DHT22;10910;50.932;0.246;2022-12-05T21:06:36;7.20;99.90
21498;DHT22;10910;50.932;0.246;2022-12-05T21:13:57;7.10;99.90
21498;DHT22;10910;50.932;0.246;2022-12-05T21:18:52;7.20;99.90
21498;DHT22;10910;50.932;0.246;2022-12-05T21:21:20;7.10;99.90
21498;DHT22;10910;50.932;0.246;2022-12-05T21:23:50;7.10;99.90
21498;DHT22;10910;50.932;0.246;2022-12-05T21:26:17;7.10;99.90
21498;DHT22;10910;50.932;0.246;2022-12-05T21:28:44;7.10;99.90
21498;DHT22;10910;50.932;0.246;2022-12-05T21:31:16;7.10;99.90
21498;DHT22;10910;50.932;0.246;2022-12-05T21:33:46;7.10;99.90
21498;DHT22;10910;50.932;0.246;2022-12-05T21:48:24;7.00;99.90
21498;DHT22;10910;50.932;0.246;2022-12-05T21:58:10;7.00;99.90
21498;DHT22;10910;50.932;0.246;2022-12-05T22:00:36;7.00;99.90
21498;DHT22;10910;50.932;0.246;2022-12-05T23:01:33;6.80;99.90
21498;DHT22;10910;50.932;0.246;2022-12-05T23:04:01;6.70;99.90
21498;DHT22;10910;50.932;0.246;2022-12-05T23:06:29;6.80;99.90
21498;DHT22;10910;50.932;0.246;2022-12-05T23:18:43;6.70;99.90
21498;DHT22;10910;50.932;0.246;2022-12-05T23:31:02;6.30;99.90
21498;DHT22;10910;50.932;0.246;2022-12-05T23:41:00;6.20;99.90
21498;DHT22;10910;50.932;0.246;2022-12-05T23:43:27;6.20;99.90
21498;DHT22;10910;50.932;0.246;2022-12-05T23:45:53;6.10;99.90
